createdAt,value
2019-05-06T00:00:13.934Z,65.91
2019-05-06T00:00:56.630Z,65.90
2019-05-06T00:01:28.057Z,65.71
2019-05-06T00:02:04.531Z,65.71
2019-05-06T00:02:40.133Z,65.05
2019-05-06T00:03:15.887Z,65.05
2019-05-06T00:03:51.633Z,65.33
2019-05-06T00:04:27.280Z,65.33
2019-05-06T00:05:04.120Z,65.63
2019-05-06T00:05:39.642Z,65.72
2019-05-06T00:06:15.455Z,66.02
2019-05-06T00:06:50.889Z,65.91
2019-05-06T00:07:26.424Z,65.98
2019-05-06T00:08:04.023Z,65.91
2019-05-06T00:08:39.805Z,65.91
2019-05-06T00:09:16.177Z,65.71
2019-05-06T00:09:53.905Z,65.78
2019-05-06T00:10:31.456Z,65.70
2019-05-06T00:11:07.272Z,65.63
2019-05-06T00:11:44.711Z,65.80
2019-05-06T00:12:20.327Z,65.66
2019-05-06T00:12:56.419Z,65.74
2019-05-06T00:13:34.209Z,66.16
2019-05-06T00:14:09.766Z,66.21
2019-05-06T00:14:45.706Z,66.34
2019-05-06T00:15:21.166Z,66.89
2019-05-06T00:15:57.272Z,66.77
2019-05-06T00:16:34.738Z,66.73
2019-05-06T00:17:10.361Z,67.08
2019-05-06T00:17:46.275Z,68.04
2019-05-06T00:18:22.019Z,68.47
2019-05-06T00:18:57.583Z,67.43
2019-05-06T00:19:34.132Z,67.58
2019-05-06T00:20:10.044Z,67.24
2019-05-06T00:20:46.056Z,67.06
2019-05-06T00:21:24.366Z,67.68
2019-05-06T00:21:59.443Z,67.35
2019-05-06T00:22:34.905Z,67.35
2019-05-06T00:23:25.037Z,68.07
2019-05-06T00:24:00.775Z,67.87
2019-05-06T00:24:44.008Z,67.87
2019-05-06T00:25:26.085Z,67.87
2019-05-06T00:26:14.859Z,67.35
2019-05-06T00:26:57.613Z,66.97
2019-05-06T00:27:56.267Z,67.32
2019-05-06T00:28:40.723Z,67.38
2019-05-06T00:29:18.476Z,68.21
2019-05-06T00:29:55.039Z,67.95
2019-05-06T00:30:30.743Z,68.22
2019-05-06T00:31:12.958Z,67.97
2019-05-06T00:31:44.821Z,67.70
2019-05-06T00:32:20.258Z,67.53
2019-05-06T00:32:55.793Z,67.41
2019-05-06T00:33:33.991Z,67.39
2019-05-06T00:34:08.776Z,67.11
2019-05-06T00:34:44.588Z,67.66
2019-05-06T00:35:20.043Z,67.66
2019-05-06T00:35:55.704Z,67.24
2019-05-06T00:36:31.498Z,67.24
2019-05-06T00:37:06.930Z,66.81
2019-05-06T00:37:44.184Z,66.45
2019-05-06T00:38:19.706Z,65.76
2019-05-06T00:38:58.022Z,65.66
2019-05-06T00:39:53.875Z,65.64
2019-05-06T00:40:34.019Z,65.50
2019-05-06T00:41:14.422Z,66.31
2019-05-06T00:41:56.237Z,66.31
2019-05-06T00:42:34.623Z,66.45
2019-05-06T00:43:11.234Z,65.15
2019-05-06T00:43:46.672Z,65.15
2019-05-06T00:44:23.907Z,64.75
2019-05-06T00:44:59.692Z,65.22
2019-05-06T00:45:35.196Z,65.02
2019-05-06T00:46:10.805Z,64.58
2019-05-06T00:46:46.270Z,65.23
2019-05-06T00:47:22.035Z,65.23
2019-05-06T00:47:59.268Z,65.38
2019-05-06T00:48:35.060Z,65.12
2019-05-06T00:49:10.597Z,64.93
2019-05-06T00:49:46.336Z,65.44
2019-05-06T00:50:23.510Z,65.96
2019-05-06T00:50:59.490Z,65.96
2019-05-06T00:51:35.643Z,65.75
2019-05-06T00:52:11.200Z,65.75
2019-05-06T00:52:46.839Z,66.20
2019-05-06T00:53:23.991Z,66.20
2019-05-06T00:54:04.793Z,66.31
2019-05-06T00:54:40.804Z,66.21
2019-05-06T00:55:16.241Z,66.21
2019-05-06T00:55:53.668Z,66.06
2019-05-06T00:56:29.028Z,66.20
2019-05-06T00:57:04.476Z,66.66
2019-05-06T00:57:46.385Z,66.66
2019-05-06T00:58:23.806Z,66.51
2019-05-06T00:58:59.681Z,66.55
2019-05-06T00:59:35.133Z,66.88
2019-05-06T01:00:10.919Z,66.79
2019-05-06T01:00:46.673Z,66.82
2019-05-06T01:01:26.915Z,66.22
2019-05-06T01:01:59.998Z,65.91
2019-05-06T01:02:35.817Z,66.02
2019-05-06T01:03:11.606Z,66.21
2019-05-06T01:03:47.324Z,66.92
2019-05-06T01:04:24.490Z,66.84
2019-05-06T01:05:00.374Z,66.13
2019-05-06T01:05:35.837Z,65.52
2019-05-06T01:06:11.425Z,65.60
2019-05-06T01:06:47.701Z,65.82
2019-05-06T01:07:23.743Z,65.82
2019-05-06T01:08:00.188Z,65.64
2019-05-06T01:08:35.712Z,65.64
2019-05-06T01:09:14.712Z,66.55
2019-05-06T01:09:50.385Z,65.94
2019-05-06T01:10:26.065Z,64.89
2019-05-06T01:11:03.883Z,64.82
2019-05-06T01:11:39.281Z,64.61
2019-05-06T01:12:14.716Z,64.61
2019-05-06T01:13:08.332Z,65.32
2019-05-06T01:14:06.179Z,65.74
2019-05-06T01:14:46.231Z,66.22
2019-05-06T01:15:23.839Z,66.22
2019-05-06T01:15:59.402Z,65.73
2019-05-06T01:16:35.307Z,66.16
2019-05-06T01:17:13.312Z,66.16
2019-05-06T01:17:48.403Z,66.41
2019-05-06T01:18:24.494Z,66.46
2019-05-06T01:19:00.582Z,66.27
2019-05-06T01:19:36.006Z,65.75
2019-05-06T01:20:13.859Z,64.36
2019-05-06T01:20:51.185Z,63.98
2019-05-06T01:21:26.639Z,64.20
2019-05-06T01:22:04.548Z,64.40
2019-05-06T01:22:39.683Z,64.80
2019-05-06T01:23:15.208Z,64.54
2019-05-06T01:23:51.054Z,64.54
2019-05-06T01:24:26.815Z,64.79
2019-05-06T01:25:03.936Z,64.86
2019-05-06T01:25:39.815Z,65.35
2019-05-06T01:26:17.231Z,65.35
2019-05-06T01:26:53.618Z,65.06
2019-05-06T01:27:29.358Z,64.62
2019-05-06T01:28:04.806Z,64.42
2019-05-06T01:28:40.239Z,64.60
2019-05-06T01:29:15.700Z,64.81
2019-05-06T01:29:51.165Z,64.84
2019-05-06T01:30:26.938Z,64.81
2019-05-06T01:31:04.258Z,65.09
2019-05-06T01:31:43.215Z,64.86
2019-05-06T01:32:17.136Z,65.07
2019-05-06T01:32:54.357Z,65.25
2019-05-06T01:33:30.720Z,65.25
2019-05-06T01:34:06.646Z,64.72
2019-05-06T01:34:44.522Z,64.14
2019-05-06T01:35:19.223Z,64.14
2019-05-06T01:35:54.677Z,64.19
2019-05-06T01:36:30.179Z,64.58
2019-05-06T01:37:05.637Z,64.63
2019-05-06T01:37:44.017Z,65.02
2019-05-06T01:38:27.308Z,64.81
2019-05-06T01:39:13.870Z,64.47
2019-05-06T01:40:00.312Z,64.47
2019-05-06T01:40:43.964Z,64.89
2019-05-06T01:41:44.761Z,65.11
2019-05-06T01:42:51.552Z,65.11
2019-05-06T01:43:30.610Z,64.88
2019-05-06T01:44:06.164Z,65.13
2019-05-06T01:44:41.603Z,65.13
2019-05-06T01:45:17.701Z,65.05
2019-05-06T01:45:53.748Z,65.10
2019-05-06T01:46:29.330Z,64.94
2019-05-06T01:47:05.094Z,64.77
2019-05-06T01:47:41.191Z,64.77
2019-05-06T01:48:19.097Z,64.37
2019-05-06T01:48:54.530Z,63.91
2019-05-06T01:49:30.055Z,63.88
2019-05-06T01:50:06.507Z,63.88
2019-05-06T01:50:41.967Z,64.06
2019-05-06T01:51:18.912Z,64.12
2019-05-06T01:51:55.089Z,64.12
2019-05-06T01:52:30.950Z,64.24
2019-05-06T01:53:06.420Z,64.14
2019-05-06T01:53:41.858Z,64.19
2019-05-06T01:54:17.946Z,64.50
2019-05-06T01:54:54.307Z,64.67
2019-05-06T01:55:30.197Z,64.61
2019-05-06T01:56:05.630Z,64.32
2019-05-06T01:56:41.064Z,63.84
2019-05-06T01:57:16.508Z,63.81
2019-05-06T01:57:54.557Z,63.55
2019-05-06T01:58:30.473Z,63.15
2019-05-06T01:59:05.934Z,63.11
2019-05-06T01:59:41.383Z,63.51
2019-05-06T02:00:17.335Z,63.35
2019-05-06T02:00:54.468Z,63.11
2019-05-06T02:01:30.444Z,63.39
2019-05-06T02:02:06.466Z,63.43
2019-05-06T02:02:43.937Z,63.43
2019-05-06T02:03:20.005Z,63.38
2019-05-06T02:03:55.650Z,63.74
2019-05-06T02:04:33.577Z,63.76
2019-05-06T02:05:09.520Z,63.95
2019-05-06T02:05:45.006Z,63.70
2019-05-06T02:06:20.439Z,63.84
2019-05-06T02:06:56.212Z,63.84
2019-05-06T02:07:31.730Z,64.09
2019-05-06T02:08:07.197Z,64.46
2019-05-06T02:08:44.820Z,64.79
2019-05-06T02:09:20.120Z,64.79
2019-05-06T02:09:55.704Z,64.73
2019-05-06T02:10:31.187Z,64.55
2019-05-06T02:11:06.968Z,64.87
2019-05-06T02:11:44.199Z,64.87
2019-05-06T02:12:20.151Z,64.81
2019-05-06T02:12:56.261Z,64.86
2019-05-06T02:13:32.180Z,64.97
2019-05-06T02:14:07.985Z,64.92
2019-05-06T02:14:43.768Z,65.46
2019-05-06T02:15:19.776Z,65.46
2019-05-06T02:15:55.238Z,65.34
2019-05-06T02:16:31.091Z,65.55
2019-05-06T02:17:06.872Z,65.57
2019-05-06T02:17:44.091Z,65.63
2019-05-06T02:18:20.708Z,65.84
2019-05-06T02:18:56.203Z,65.92
2019-05-06T02:19:34.553Z,66.04
2019-05-06T02:20:10.094Z,65.94
2019-05-06T02:20:46.226Z,66.17
2019-05-06T02:21:40.638Z,66.35
2019-05-06T02:22:41.194Z,66.61
2019-05-06T02:23:19.679Z,66.41
2019-05-06T02:23:59.123Z,66.68
2019-05-06T02:24:56.329Z,66.91
2019-05-06T02:25:37.843Z,67.31
2019-05-06T02:26:14.244Z,67.32
2019-05-06T02:26:49.830Z,67.59
2019-05-06T02:27:25.347Z,67.91
2019-05-06T02:28:01.232Z,67.56
2019-05-06T02:28:39.034Z,67.56
2019-05-06T02:29:16.847Z,67.60
2019-05-06T02:29:57.761Z,67.49
2019-05-06T02:30:49.448Z,67.50
2019-05-06T02:31:49.280Z,67.61
2019-05-06T02:32:51.724Z,67.61
2019-05-06T02:33:35.811Z,67.53
2019-05-06T02:34:15.479Z,67.53
2019-05-06T02:34:58.249Z,67.09
2019-05-06T02:35:50.312Z,67.26
2019-05-06T02:36:34.240Z,67.58
2019-05-06T02:37:14.731Z,67.72
2019-05-06T02:37:49.300Z,67.71
2019-05-06T02:38:35.617Z,67.61
2019-05-06T02:39:05.425Z,67.61
2019-05-06T02:39:43.692Z,67.21
2019-05-06T02:40:25.296Z,67.10
2019-05-06T02:41:03.528Z,67.21
2019-05-06T02:41:39.217Z,67.37
2019-05-06T02:42:14.675Z,67.60
2019-05-06T02:42:50.106Z,67.58
2019-05-06T02:43:25.565Z,67.58
2019-05-06T02:44:03.632Z,67.59
2019-05-06T02:44:38.842Z,67.59
2019-05-06T02:45:14.473Z,67.60
2019-05-06T02:45:53.076Z,67.76
2019-05-06T02:46:27.587Z,67.76
2019-05-06T02:47:14.448Z,67.71
2019-05-06T02:47:56.166Z,67.61
2019-05-06T02:48:43.013Z,67.62
2019-05-06T02:49:25.432Z,67.78
2019-05-06T02:50:04.910Z,67.85
2019-05-06T02:50:58.251Z,67.78
2019-05-06T02:51:33.804Z,67.86
2019-05-06T02:52:09.249Z,67.75
2019-05-06T02:52:44.772Z,67.72
2019-05-06T02:53:23.592Z,67.71
2019-05-06T02:53:59.313Z,67.66
2019-05-06T02:54:34.898Z,67.51
2019-05-06T02:55:12.774Z,67.59
2019-05-06T02:55:47.510Z,67.52
2019-05-06T02:56:24.116Z,67.43
2019-05-06T02:56:59.688Z,67.50
2019-05-06T02:57:35.353Z,67.42
2019-05-06T02:58:10.819Z,67.61
2019-05-06T02:58:46.223Z,67.61
2019-05-06T02:59:24.018Z,67.67
2019-05-06T02:59:58.930Z,67.79
2019-05-06T03:00:34.790Z,67.92
2019-05-06T03:01:13.396Z,67.92
2019-05-06T03:01:48.042Z,67.65
2019-05-06T03:02:38.034Z,67.74
2019-05-06T03:03:02.876Z,67.74
2019-05-06T03:03:37.899Z,67.72
2019-05-06T03:04:13.376Z,67.82
2019-05-06T03:04:52.596Z,67.93
2019-05-06T03:05:26.717Z,67.82
2019-05-06T03:06:03.997Z,67.90
2019-05-06T03:06:39.401Z,67.90
2019-05-06T03:07:14.878Z,67.69
2019-05-06T03:07:57.043Z,67.95
2019-05-06T03:08:28.892Z,68.03
2019-05-06T03:09:06.462Z,68.27
2019-05-06T03:09:44.576Z,68.38
2019-05-06T03:10:19.502Z,68.25
2019-05-06T03:10:55.085Z,68.22
2019-05-06T03:11:33.207Z,68.29
2019-05-06T03:12:08.462Z,68.29
2019-05-06T03:12:44.109Z,68.39
2019-05-06T03:13:19.696Z,68.37
2019-05-06T03:13:55.307Z,68.42
2019-05-06T03:14:34.261Z,68.13
2019-05-06T03:15:08.708Z,68.34
2019-05-06T03:15:44.184Z,68.34
2019-05-06T03:16:23.539Z,68.30
2019-05-06T03:16:57.757Z,68.30
2019-05-06T03:17:33.631Z,68.53
2019-05-06T03:18:09.116Z,68.67
2019-05-06T03:18:44.573Z,68.71
2019-05-06T03:19:20.010Z,68.77
2019-05-06T03:19:56.885Z,68.90
2019-05-06T03:20:57.491Z,68.84
2019-05-06T03:21:45.205Z,68.70
2019-05-06T03:22:34.554Z,68.71
2019-05-06T03:23:08.659Z,68.71
2019-05-06T03:23:46.928Z,68.90
2019-05-06T03:24:43.627Z,69.02
2019-05-06T03:25:27.051Z,69.08
2019-05-06T03:26:05.765Z,69.20
2019-05-06T03:26:39.814Z,69.27
2019-05-06T03:27:15.288Z,69.59
2019-05-06T03:27:53.229Z,69.59
2019-05-06T03:28:27.966Z,69.56
2019-05-06T03:29:03.511Z,69.60
2019-05-06T03:29:38.948Z,69.76
2019-05-06T03:30:16.557Z,69.81
2019-05-06T03:30:56.423Z,69.81
2019-05-06T03:31:29.608Z,69.81
2019-05-06T03:32:06.976Z,69.71
2019-05-06T03:33:20.959Z,69.64
2019-05-06T03:33:40.189Z,69.63
2019-05-06T03:34:21.104Z,69.63
2019-05-06T03:34:58.776Z,69.76
2019-05-06T03:35:27.341Z,69.86
2019-05-06T03:36:00.562Z,69.83
2019-05-06T03:36:32.949Z,69.83
2019-05-06T03:37:07.190Z,69.94
2019-05-06T03:37:44.019Z,69.97
2019-05-06T03:38:22.716Z,69.79
2019-05-06T03:38:57.283Z,69.81
2019-05-06T03:39:33.890Z,69.81
2019-05-06T03:40:10.271Z,69.89
2019-05-06T03:40:46.114Z,69.45
2019-05-06T03:41:23.365Z,69.63
2019-05-06T03:41:59.205Z,69.69
2019-05-06T03:42:34.721Z,69.86
2019-05-06T03:43:13.664Z,69.73
2019-05-06T03:43:47.406Z,69.64
2019-05-06T03:44:23.954Z,69.46
2019-05-06T03:45:04.381Z,69.07
2019-05-06T03:45:59.002Z,69.14
2019-05-06T03:46:53.982Z,69.45
2019-05-06T03:47:43.310Z,69.65
2019-05-06T03:48:24.526Z,69.81
2019-05-06T03:49:03.668Z,69.81
2019-05-06T03:49:43.631Z,69.90
2019-05-06T03:50:19.322Z,69.89
2019-05-06T03:50:56.011Z,69.73
2019-05-06T03:51:34.350Z,69.83
2019-05-06T03:52:09.487Z,69.91
2019-05-06T03:52:45.367Z,69.87
2019-05-06T03:53:23.238Z,69.89
2019-05-06T03:54:03.269Z,69.85
2019-05-06T03:54:39.290Z,69.77
2019-05-06T03:55:14.815Z,69.76
2019-05-06T03:55:53.941Z,69.64
2019-05-06T03:56:29.539Z,69.67
2019-05-06T03:57:06.035Z,69.78
2019-05-06T03:57:42.969Z,70.00
2019-05-06T03:58:23.610Z,70.18
2019-05-06T03:58:59.384Z,70.17
2019-05-06T03:59:36.827Z,70.11
2019-05-06T04:00:15.972Z,70.06
2019-05-06T04:00:53.104Z,69.78
2019-05-06T04:01:28.974Z,69.83
2019-05-06T04:02:05.430Z,69.88
2019-05-06T04:02:43.490Z,69.83
2019-05-06T04:03:18.199Z,69.88
2019-05-06T04:03:57.152Z,69.98
2019-05-06T04:04:33.199Z,69.52
2019-05-06T04:05:08.511Z,69.51
2019-05-06T04:05:44.870Z,69.58
2019-05-06T04:06:24.023Z,69.60
2019-05-06T04:06:58.985Z,69.44
2019-05-06T04:07:34.799Z,69.51
2019-05-06T04:08:12.749Z,69.50
2019-05-06T04:08:52.601Z,69.51
2019-05-06T04:09:26.849Z,69.76
2019-05-06T04:10:03.431Z,69.73
2019-05-06T04:10:39.402Z,69.66
2019-05-06T04:11:18.352Z,69.72
2019-05-06T04:11:54.440Z,69.69
2019-05-06T04:12:33.282Z,69.70
2019-05-06T04:13:13.493Z,69.71
2019-05-06T04:13:50.036Z,69.77
2019-05-06T04:14:27.307Z,69.92
2019-05-06T04:15:04.388Z,69.94
2019-05-06T04:16:08.302Z,70.02
2019-05-06T04:16:53.236Z,69.96
2019-05-06T04:17:57.185Z,70.00
2019-05-06T04:18:33.622Z,69.85
2019-05-06T04:19:24.883Z,69.54
2019-05-06T04:20:07.735Z,69.47
2019-05-06T04:20:53.264Z,69.47
2019-05-06T04:21:35.440Z,69.40
2019-05-06T04:22:36.302Z,69.43
2019-05-06T04:23:25.659Z,69.35
2019-05-06T04:24:22.768Z,69.35
2019-05-06T04:25:14.057Z,69.35
2019-05-06T04:25:58.181Z,69.38
2019-05-06T04:26:46.359Z,69.43
2019-05-06T04:27:36.999Z,69.21
2019-05-06T04:28:18.461Z,69.08
2019-05-06T04:28:55.645Z,68.97
2019-05-06T04:29:33.092Z,69.04
2019-05-06T04:30:09.051Z,69.17
2019-05-06T04:30:44.631Z,69.30
2019-05-06T04:31:22.707Z,69.30
2019-05-06T04:31:57.241Z,69.20
2019-05-06T04:32:34.094Z,69.17
2019-05-06T04:33:14.112Z,69.08
2019-05-06T04:34:05.361Z,68.90
2019-05-06T04:34:24.953Z,68.64
2019-05-06T04:35:04.084Z,68.62
2019-05-06T04:35:38.405Z,68.51
2019-05-06T04:36:14.166Z,68.40
2019-05-06T04:36:49.600Z,68.37
2019-05-06T04:37:25.093Z,68.24
2019-05-06T04:38:03.137Z,68.18
2019-05-06T04:38:38.770Z,68.30
2019-05-06T04:39:14.771Z,68.41
2019-05-06T04:39:53.179Z,68.48
2019-05-06T04:40:28.400Z,68.06
2019-05-06T04:41:04.423Z,67.97
2019-05-06T04:41:43.060Z,68.00
2019-05-06T04:42:17.560Z,68.06
2019-05-06T04:42:53.330Z,67.92
2019-05-06T04:43:29.170Z,67.93
2019-05-06T04:44:04.805Z,67.90
2019-05-06T04:44:40.312Z,67.81
2019-05-06T04:45:17.264Z,67.86
2019-05-06T04:45:54.189Z,67.72
2019-05-06T04:46:34.370Z,67.49
2019-05-06T04:47:08.259Z,67.46
2019-05-06T04:47:43.786Z,67.25
2019-05-06T04:48:19.274Z,67.29
2019-05-06T04:48:57.261Z,67.22
2019-05-06T04:49:33.296Z,67.10
2019-05-06T04:50:09.453Z,67.26
2019-05-06T04:50:44.921Z,67.15
2019-05-06T04:51:24.616Z,67.26
2019-05-06T04:51:59.079Z,67.40
2019-05-06T04:52:34.547Z,67.25
2019-05-06T04:53:10.450Z,67.24
2019-05-06T04:53:47.132Z,67.25
2019-05-06T04:54:26.225Z,67.27
2019-05-06T04:55:03.133Z,67.10
2019-05-06T04:55:37.732Z,67.08
2019-05-06T04:56:14.375Z,66.84
2019-05-06T04:56:53.452Z,66.85
2019-05-06T04:57:28.051Z,66.78
2019-05-06T04:58:05.729Z,66.78
2019-05-06T04:58:42.897Z,66.68
2019-05-06T04:59:19.353Z,66.57
2019-05-06T04:59:55.273Z,66.66
2019-05-06T05:00:33.135Z,66.41
2019-05-06T05:01:11.900Z,66.36
2019-05-06T05:01:45.986Z,66.27
2019-05-06T05:02:23.043Z,66.08
2019-05-06T05:02:58.967Z,66.24
2019-05-06T05:03:35.430Z,66.21
2019-05-06T05:04:24.556Z,66.21
2019-05-06T05:04:48.565Z,66.69
2019-05-06T05:05:24.228Z,66.65
2019-05-06T05:06:02.980Z,66.23
2019-05-06T05:06:37.462Z,66.32
2019-05-06T05:07:12.994Z,66.41
2019-05-06T05:07:49.032Z,66.36
2019-05-06T05:08:36.882Z,66.10
2019-05-06T05:09:17.144Z,66.11
2019-05-06T05:09:53.834Z,66.11
2019-05-06T05:10:35.903Z,66.02
2019-05-06T05:11:35.279Z,66.18
2019-05-06T05:12:16.301Z,66.18
2019-05-06T05:13:12.644Z,65.96
2019-05-06T05:13:56.353Z,65.98
2019-05-06T05:14:36.940Z,65.89
2019-05-06T05:15:32.547Z,66.09
2019-05-06T05:16:14.838Z,66.11
2019-05-06T05:16:58.571Z,66.37
2019-05-06T05:17:42.366Z,66.34
2019-05-06T05:18:25.099Z,66.44
2019-05-06T05:19:06.518Z,66.38
2019-05-06T05:19:42.925Z,66.27
2019-05-06T05:20:18.468Z,66.29
2019-05-06T05:20:55.330Z,66.21
2019-05-06T05:21:32.256Z,66.24
2019-05-06T05:22:08.155Z,66.15
2019-05-06T05:22:44.835Z,66.15
2019-05-06T05:23:22.818Z,66.68
2019-05-06T05:23:58.507Z,66.72
2019-05-06T05:24:34.359Z,66.92
2019-05-06T05:25:12.064Z,66.99
2019-05-06T05:25:47.515Z,67.08
2019-05-06T05:26:23.437Z,67.17
2019-05-06T05:26:59.066Z,67.15
2019-05-06T05:27:34.655Z,67.24
2019-05-06T05:28:12.966Z,67.07
2019-05-06T05:28:48.324Z,66.79
2019-05-06T05:29:23.891Z,66.76
2019-05-06T05:29:59.440Z,66.76
2019-05-06T05:30:35.515Z,66.78
2019-05-06T05:31:12.341Z,66.78
2019-05-06T05:31:47.859Z,66.66
2019-05-06T05:32:26.545Z,66.45
2019-05-06T05:33:02.601Z,66.45
2019-05-06T05:33:38.190Z,65.79
2019-05-06T05:34:14.465Z,65.72
2019-05-06T05:34:52.102Z,65.71
2019-05-06T05:35:27.910Z,65.61
2019-05-06T05:36:03.403Z,64.96
2019-05-06T05:36:39.634Z,64.54
2019-05-06T05:37:15.892Z,64.58
2019-05-06T05:37:52.918Z,64.91
2019-05-06T05:38:29.124Z,65.13
2019-05-06T05:39:07.178Z,66.23
2019-05-06T05:39:42.893Z,66.23
2019-05-06T05:40:18.769Z,66.09
2019-05-06T05:40:54.555Z,65.88
2019-05-06T05:41:30.045Z,66.01
2019-05-06T05:42:17.106Z,66.12
2019-05-06T05:43:02.883Z,66.34
2019-05-06T05:43:48.528Z,66.52
2019-05-06T05:44:29.931Z,66.28
2019-05-06T05:45:05.793Z,66.09
2019-05-06T05:45:42.498Z,65.98
2019-05-06T05:46:18.269Z,65.87
2019-05-06T05:46:53.739Z,65.60
2019-05-06T05:47:29.377Z,65.57
2019-05-06T05:48:12.379Z,65.79
2019-05-06T05:49:11.927Z,65.96
2019-05-06T05:50:22.839Z,65.47
2019-05-06T05:50:58.855Z,65.79
2019-05-06T05:51:34.346Z,66.22
2019-05-06T05:52:12.526Z,66.36
2019-05-06T05:52:47.856Z,66.94
2019-05-06T05:53:23.639Z,67.05
2019-05-06T05:54:02.059Z,66.91
2019-05-06T05:54:37.117Z,66.97
2019-05-06T05:55:13.360Z,67.31
2019-05-06T05:55:48.920Z,67.20
2019-05-06T05:56:24.595Z,67.09
2019-05-06T05:57:02.386Z,66.82
2019-05-06T05:57:38.392Z,66.25
2019-05-06T05:58:13.906Z,66.36
2019-05-06T05:58:49.683Z,66.40
2019-05-06T05:59:25.492Z,66.75
2019-05-06T06:00:03.703Z,67.06
2019-05-06T06:00:39.695Z,67.10
2019-05-06T06:01:15.151Z,67.13
2019-05-06T06:01:52.899Z,66.71
2019-05-06T06:02:30.640Z,66.64
2019-05-06T06:03:07.450Z,66.80
2019-05-06T06:03:42.978Z,66.95
2019-05-06T06:04:18.963Z,67.47
2019-05-06T06:04:57.673Z,67.53
2019-05-06T06:05:32.982Z,67.35
2019-05-06T06:06:08.936Z,67.15
2019-05-06T06:06:44.474Z,67.15
2019-05-06T06:07:20.257Z,67.29
2019-05-06T06:07:55.718Z,67.31
2019-05-06T06:08:32.258Z,67.00
2019-05-06T06:09:08.273Z,66.85
2019-05-06T06:09:57.884Z,67.09
2019-05-06T06:11:04.555Z,67.21
2019-05-06T06:11:46.518Z,66.94
2019-05-06T06:12:23.052Z,66.65
2019-05-06T06:12:58.923Z,66.79
2019-05-06T06:13:34.458Z,66.92
2019-05-06T06:14:29.376Z,67.32
2019-05-06T06:15:24.251Z,67.64
2019-05-06T06:16:27.946Z,67.68
2019-05-06T06:17:18.442Z,67.22
2019-05-06T06:18:16.255Z,67.19
2019-05-06T06:19:03.201Z,66.98
2019-05-06T06:19:47.935Z,67.34
2019-05-06T06:20:42.408Z,67.52
2019-05-06T06:21:32.241Z,67.67
2019-05-06T06:22:14.791Z,67.60
2019-05-06T06:22:52.183Z,67.52
2019-05-06T06:23:32.366Z,67.47
2019-05-06T06:24:16.135Z,67.29
2019-05-06T06:24:52.632Z,67.38
2019-05-06T06:25:28.229Z,67.66
2019-05-06T06:26:04.180Z,67.56
2019-05-06T06:26:39.766Z,67.59
2019-05-06T06:27:15.233Z,67.40
2019-05-06T06:27:52.091Z,67.33
2019-05-06T06:28:28.181Z,67.37
2019-05-06T06:29:03.734Z,67.17
2019-05-06T06:29:41.706Z,67.04
2019-05-06T06:30:16.754Z,66.94
2019-05-06T06:31:04.693Z,66.85
2019-05-06T06:32:03.146Z,66.71
2019-05-06T06:32:38.701Z,66.18
2019-05-06T06:33:14.194Z,65.48
2019-05-06T06:33:52.964Z,65.48
2019-05-06T06:34:33.775Z,64.98
2019-05-06T06:35:28.359Z,64.98
2019-05-06T06:36:12.301Z,64.08
2019-05-06T06:37:10.022Z,64.38
2019-05-06T06:37:59.682Z,64.69
2019-05-06T06:38:47.953Z,64.69
2019-05-06T06:39:26.885Z,63.43
2019-05-06T06:40:02.785Z,63.43
2019-05-06T06:40:38.482Z,63.31
2019-05-06T06:41:14.333Z,63.27
2019-05-06T06:41:51.934Z,63.00
2019-05-06T06:42:27.521Z,63.04
2019-05-06T06:43:06.235Z,62.98
2019-05-06T06:43:42.146Z,62.88
2019-05-06T06:44:22.126Z,63.58
2019-05-06T06:44:57.662Z,63.52
2019-05-06T06:45:33.853Z,63.58
2019-05-06T06:46:09.590Z,63.69
2019-05-06T06:46:45.436Z,63.92
2019-05-06T06:47:22.453Z,63.43
2019-05-06T06:47:58.326Z,63.44
2019-05-06T06:48:34.286Z,63.19
2019-05-06T06:49:12.724Z,63.25
2019-05-06T06:49:48.423Z,63.46
2019-05-06T06:50:23.901Z,63.38
2019-05-06T06:50:59.773Z,63.22
2019-05-06T06:51:35.542Z,63.31
2019-05-06T06:52:14.609Z,62.16
2019-05-06T06:52:48.706Z,63.12
2019-05-06T06:53:24.151Z,63.12
2019-05-06T06:54:01.973Z,60.90
2019-05-06T06:54:37.870Z,60.96
2019-05-06T06:55:13.582Z,61.44
2019-05-06T06:55:49.043Z,61.94
2019-05-06T06:56:33.911Z,62.10
2019-05-06T06:57:31.289Z,62.17
2019-05-06T06:58:24.455Z,62.39
2019-05-06T06:59:15.017Z,62.30
2019-05-06T07:00:03.880Z,62.49
2019-05-06T07:00:56.148Z,62.49
2019-05-06T07:01:37.787Z,62.05
2019-05-06T07:02:23.548Z,61.58
2019-05-06T07:03:03.126Z,61.30
2019-05-06T07:04:10.465Z,61.42
2019-05-06T07:04:47.816Z,60.81
2019-05-06T07:05:54.701Z,60.81
2019-05-06T07:06:42.915Z,60.52
2019-05-06T07:07:18.734Z,60.38
2019-05-06T07:07:54.503Z,60.76
2019-05-06T07:08:34.863Z,60.98
2019-05-06T07:09:08.073Z,60.83
2019-05-06T07:09:44.001Z,60.48
2019-05-06T07:10:37.043Z,60.29
2019-05-06T07:11:13.123Z,60.63
2019-05-06T07:11:49.007Z,60.10
2019-05-06T07:12:26.553Z,59.43
2019-05-06T07:13:03.033Z,59.26
2019-05-06T07:13:42.757Z,59.26
2019-05-06T07:14:18.753Z,59.31
2019-05-06T07:15:02.236Z,59.65
2019-05-06T07:15:38.384Z,60.02
2019-05-06T07:16:14.362Z,59.76
2019-05-06T07:16:50.151Z,59.69
2019-05-06T07:17:25.618Z,59.28
2019-05-06T07:18:02.279Z,59.46
2019-05-06T07:18:38.346Z,59.59
2019-05-06T07:19:15.813Z,59.59
2019-05-06T07:19:55.560Z,59.45
2019-05-06T07:20:34.830Z,58.88
2019-05-06T07:21:22.533Z,58.88
2019-05-06T07:21:58.813Z,58.96
2019-05-06T07:22:37.431Z,59.09
2019-05-06T07:23:25.274Z,58.97
2019-05-06T07:24:02.177Z,58.74
2019-05-06T07:24:38.056Z,58.77
2019-05-06T07:25:13.663Z,59.37
2019-05-06T07:25:49.475Z,59.18
2019-05-06T07:26:28.171Z,59.47
2019-05-06T07:27:12.616Z,59.45
2019-05-06T07:27:48.526Z,59.59
2019-05-06T07:28:24.516Z,59.68
2019-05-06T07:29:05.967Z,59.68
2019-05-06T07:29:37.170Z,59.19
2019-05-06T07:30:13.010Z,58.44
2019-05-06T07:30:48.464Z,58.52
2019-05-06T07:31:26.658Z,58.52
2019-05-06T07:32:02.705Z,58.65
2019-05-06T07:32:38.548Z,58.65
2019-05-06T07:33:14.044Z,58.55
2019-05-06T07:33:49.468Z,58.45
2019-05-06T07:34:25.297Z,57.69
2019-05-06T07:35:02.398Z,57.69
2019-05-06T07:35:41.007Z,57.34
2019-05-06T07:36:16.032Z,57.93
2019-05-06T07:36:52.437Z,57.93
2019-05-06T07:37:28.422Z,57.93
2019-05-06T07:38:03.869Z,57.93
2019-05-06T07:38:42.841Z,57.69
2019-05-06T07:39:18.409Z,57.69
2019-05-06T07:39:54.175Z,56.56
2019-05-06T07:40:29.665Z,56.56
2019-05-06T07:41:17.180Z,56.55
2019-05-06T07:41:55.717Z,56.55
2019-05-06T07:42:37.462Z,56.81
2019-05-06T07:43:41.924Z,56.81
2019-05-06T07:44:39.095Z,56.38
2019-05-06T07:45:39.578Z,56.04
2019-05-06T07:46:25.715Z,56.04
2019-05-06T07:47:15.753Z,56.83
2019-05-06T07:47:57.092Z,57.17
2019-05-06T07:48:32.988Z,57.70
2019-05-06T07:49:08.885Z,56.74
2019-05-06T07:49:44.416Z,56.22
2019-05-06T07:50:19.881Z,56.40
2019-05-06T07:50:55.728Z,56.49
2019-05-06T07:51:32.453Z,56.38
2019-05-06T07:52:08.530Z,55.23
2019-05-06T07:53:03.386Z,55.23
2019-05-06T07:53:39.484Z,54.09
2019-05-06T07:54:15.779Z,54.09
2019-05-06T07:54:53.155Z,54.27
2019-05-06T07:55:28.369Z,53.78
2019-05-06T07:56:03.956Z,54.21
2019-05-06T07:56:39.572Z,54.09
2019-05-06T07:57:15.633Z,53.74
2019-05-06T07:57:52.516Z,53.80
2019-05-06T07:58:28.136Z,53.80
2019-05-06T07:59:09.967Z,53.63
2019-05-06T07:59:45.541Z,52.39
2019-05-06T08:00:22.992Z,52.49
2019-05-06T08:00:58.716Z,52.49
2019-05-06T08:01:34.333Z,51.94
2019-05-06T08:02:10.079Z,51.89
2019-05-06T08:02:45.636Z,52.50
2019-05-06T08:03:22.251Z,52.33
2019-05-06T08:03:57.817Z,52.17
2019-05-06T08:04:33.778Z,51.69
2019-05-06T08:05:09.357Z,51.63
2019-05-06T08:05:54.662Z,52.04
2019-05-06T08:06:22.839Z,51.86
2019-05-06T08:06:58.402Z,52.25
2019-05-06T08:07:33.933Z,52.09
2019-05-06T08:08:09.859Z,51.83
2019-05-06T08:08:45.652Z,51.48
2019-05-06T08:09:22.172Z,51.29
2019-05-06T08:09:58.009Z,51.86
2019-05-06T08:10:33.637Z,53.17
2019-05-06T08:11:09.172Z,52.10
2019-05-06T08:11:44.713Z,51.57
2019-05-06T08:12:22.253Z,52.23
2019-05-06T08:12:57.511Z,51.67
2019-05-06T08:13:33.433Z,51.85
2019-05-06T08:14:08.914Z,50.00
2019-05-06T08:14:44.805Z,48.41
2019-05-06T08:15:22.549Z,48.77
2019-05-06T08:15:58.190Z,48.07
2019-05-06T08:16:36.118Z,48.46
2019-05-06T08:17:24.151Z,47.60
2019-05-06T08:17:59.626Z,47.51